KMDW/MDW METAR and TAF weather

Enter ICAO airport designator
Station Type Date Time Source
KMDW METAR 2020/04/03 07:53 UTC NOAA

KMDW 030753Z 01003KT 10SM -RA OVC085 08/04 A3011 RMK AO2 SLP198 P0000 T00830039


Station Type Date Time Source
KMDW Decoded METAR 2020/04/03 07:53 UTC NOAA

CHICAGO MIDWAY AIRPORT, IL, United States (KMDW) 41-47N 087-45W 188M
Apr 03, 2020 - 03:53 AM EDT / 2020.04.03 0753 UTC
Wind: from the N (010 degrees) at 3 MPH (3 KT):0
Visibility: 10 mile(s):0
Sky conditions: overcast
Weather: light rain
Precipitation last hour: A trace
Temperature: 46.9 F (8.3 C)
Dew Point: 39.0 F (3.9 C)
Relative Humidity: 73%
Pressure (altimeter): 30.11 in. Hg (1019 hPa)
ob: KMDW 030753Z 01003KT 10SM -RA OVC085 08/04 A3011 RMK AO2 SLP198 P0000 T00830039
cycle: 8

Station Type Date Time Source
KMDW TAF 2020/04/03 06:22 UTC NOAA

TAF KMDW 030520Z 0306/0412 11004KT P6SM OVC090
TEMPO 0306/0310 -SHRA
FM031200 13009KT P6SM BKN100
FM040500 33010KT P6SM BKN035
FM040800 33012KT P6SM -SHRA OVC015

Example: see airport list